createdAt,value
2022-09-10T00:00:37.513Z,86.53
2022-09-10T00:01:37.581Z,86.53
2022-09-10T00:02:37.553Z,86.63
2022-09-10T00:03:37.494Z,86.39
2022-09-10T00:04:37.504Z,86.39
2022-09-10T00:05:37.478Z,86.43
2022-09-10T00:06:37.521Z,86.49
2022-09-10T00:07:37.462Z,86.59
2022-09-10T00:08:37.642Z,86.39
2022-09-10T00:09:37.467Z,86.29
2022-09-10T00:10:37.443Z,86.59
2022-09-10T00:11:37.426Z,86.39
2022-09-10T00:12:37.419Z,86.19
2022-09-10T00:13:37.416Z,86.13
2022-09-10T00:14:37.432Z,85.99
2022-09-10T00:15:37.393Z,86.02
2022-09-10T00:16:37.405Z,85.99
2022-09-10T00:17:37.383Z,86.19
2022-09-10T00:18:37.446Z,86.43
2022-09-10T00:19:37.390Z,86.19
2022-09-10T00:20:37.350Z,86.29
2022-09-10T00:21:37.349Z,86.39
2022-09-10T00:22:37.344Z,86.49
2022-09-10T00:23:37.348Z,86.19
2022-09-10T00:24:37.353Z,86.08
2022-09-10T00:25:37.320Z,86.29
2022-09-10T00:26:37.314Z,86.19
2022-09-10T00:27:37.307Z,85.88
2022-09-10T00:28:37.410Z,85.78
2022-09-10T00:29:37.325Z,85.88
2022-09-10T00:30:37.291Z,85.78
2022-09-10T00:31:37.362Z,85.88
2022-09-10T00:32:37.267Z,85.99
2022-09-10T00:33:37.259Z,86.08
2022-09-10T00:34:37.278Z,85.99
2022-09-10T00:35:37.240Z,86.19
2022-09-10T00:36:37.242Z,85.88
2022-09-10T00:37:37.228Z,86.19
2022-09-10T00:38:37.273Z,85.99
2022-09-10T00:39:37.312Z,86.19
2022-09-10T00:40:37.214Z,86.39
2022-09-10T00:41:37.231Z,86.49
2022-09-10T00:42:37.174Z,86.08
2022-09-10T00:43:38.176Z,86.08
2022-09-10T00:44:37.187Z,85.88
2022-09-10T00:45:38.215Z,86.19
2022-09-10T00:46:37.159Z,86.39
2022-09-10T00:47:37.148Z,85.99
2022-09-10T00:48:37.215Z,86.08
2022-09-10T00:49:37.155Z,86.08
2022-09-10T00:50:37.132Z,85.99
2022-09-10T00:51:37.125Z,86.49
2022-09-10T00:52:39.793Z,86.49
2022-09-10T00:53:38.111Z,86.39
2022-09-10T00:54:37.125Z,86.59
2022-09-10T00:55:37.099Z,86.29
2022-09-10T00:56:37.085Z,86.49
2022-09-10T00:57:37.084Z,86.29
2022-09-10T00:58:37.113Z,86.69
2022-09-10T00:59:37.087Z,86.59
2022-09-10T01:00:37.096Z,86.69
2022-09-10T01:01:37.155Z,86.79
2022-09-10T01:02:37.038Z,86.39
2022-09-10T01:03:37.028Z,87.00
2022-09-10T01:04:37.046Z,86.90
2022-09-10T01:05:37.012Z,86.90
2022-09-10T01:06:37.004Z,87.14
2022-09-10T01:07:37.008Z,87.04
2022-09-10T01:08:37.016Z,87.04
2022-09-10T01:09:37.012Z,86.90
2022-09-10T01:10:36.968Z,86.83
2022-09-10T01:11:36.974Z,87.00
2022-09-10T01:12:36.959Z,86.94
2022-09-10T01:13:36.959Z,87.34
2022-09-10T01:14:36.974Z,87.14
2022-09-10T01:15:36.949Z,87.10
2022-09-10T01:16:37.002Z,86.53
2022-09-10T01:17:36.927Z,86.53
2022-09-10T01:18:36.962Z,86.43
2022-09-10T01:19:36.933Z,87.14
2022-09-10T01:20:36.896Z,87.24
2022-09-10T01:21:36.890Z,87.04
2022-09-10T01:22:36.893Z,87.14
2022-09-10T01:23:36.879Z,87.14
2022-09-10T01:24:36.894Z,87.24
2022-09-10T01:25:36.859Z,87.14
2022-09-10T01:26:36.858Z,87.24
2022-09-10T01:27:36.847Z,87.34
2022-09-10T01:28:36.878Z,87.28
2022-09-10T01:29:36.895Z,87.48
2022-09-10T01:30:36.818Z,87.85
2022-09-10T01:31:36.866Z,87.99
2022-09-10T01:32:36.808Z,88.20
2022-09-10T01:33:36.854Z,88.09
2022-09-10T01:34:36.823Z,88.49
2022-09-10T01:35:36.814Z,87.79
2022-09-10T01:36:36.776Z,88.49
2022-09-10T01:37:36.771Z,88.60
2022-09-10T01:38:36.841Z,88.60
2022-09-10T01:39:36.766Z,88.60
2022-09-10T01:40:36.772Z,88.60
2022-09-10T01:41:36.738Z,88.80
2022-09-10T01:42:36.729Z,89.01
2022-09-10T01:43:36.725Z,88.80
2022-09-10T01:44:36.712Z,88.70
2022-09-10T01:45:36.770Z,88.95
2022-09-10T01:46:36.710Z,88.95
2022-09-10T01:47:36.700Z,88.95
2022-09-10T01:48:36.739Z,89.15
2022-09-10T01:49:36.688Z,89.15
2022-09-10T01:50:36.689Z,89.35
2022-09-10T01:51:37.664Z,89.25
2022-09-10T01:52:36.674Z,89.04
2022-09-10T01:53:36.667Z,89.15
2022-09-10T01:54:36.672Z,89.15
2022-09-10T01:55:36.662Z,89.19
2022-09-10T01:56:36.635Z,89.45
2022-09-10T01:57:36.628Z,89.70
2022-09-10T01:58:36.613Z,89.45
2022-09-10T01:59:36.611Z,89.59
2022-09-10T02:00:36.630Z,90.11
2022-09-10T02:01:36.595Z,90.11
2022-09-10T02:02:36.593Z,90.16
2022-09-10T02:03:36.580Z,90.26
2022-09-10T02:04:36.576Z,90.06
2022-09-10T02:05:36.594Z,90.11
2022-09-10T02:06:36.563Z,90.00
2022-09-10T02:07:36.555Z,90.41
2022-09-10T02:08:36.590Z,90.20
2022-09-10T02:09:36.540Z,90.20
2022-09-10T02:10:36.565Z,90.41
2022-09-10T02:11:36.521Z,89.96
2022-09-10T02:12:36.528Z,90.06
2022-09-10T02:13:36.506Z,90.36
2022-09-10T02:14:36.500Z,90.11
2022-09-10T02:15:36.523Z,90.00
2022-09-10T02:16:36.521Z,90.11
2022-09-10T02:17:36.480Z,89.90
2022-09-10T02:18:36.500Z,90.11
2022-09-10T02:19:36.462Z,89.90
2022-09-10T02:20:36.453Z,89.90
2022-09-10T02:21:36.472Z,90.11
2022-09-10T02:22:36.505Z,90.11
2022-09-10T02:23:36.431Z,89.70
2022-09-10T02:24:36.423Z,90.11
2022-09-10T02:25:36.421Z,90.11
2022-09-10T02:26:36.438Z,90.11
2022-09-10T02:27:36.404Z,89.70
2022-09-10T02:28:36.477Z,89.80
2022-09-10T02:29:36.387Z,90.06
2022-09-10T02:30:36.379Z,89.90
2022-09-10T02:31:36.544Z,89.70
2022-09-10T02:32:36.368Z,90.06
2022-09-10T02:33:36.349Z,89.76
2022-09-10T02:34:36.349Z,89.86
2022-09-10T02:35:36.337Z,89.96
2022-09-10T02:36:36.362Z,89.90
2022-09-10T02:37:36.332Z,89.65
2022-09-10T02:38:36.393Z,89.80
2022-09-10T02:39:36.331Z,90.06
2022-09-10T02:40:36.298Z,89.80
2022-09-10T02:41:36.326Z,89.90
2022-09-10T02:42:36.284Z,89.90
2022-09-10T02:43:36.279Z,90.00
2022-09-10T02:44:36.274Z,89.90
2022-09-10T02:45:36.292Z,89.70
2022-09-10T02:46:36.279Z,89.80
2022-09-10T02:47:36.279Z,90.16
2022-09-10T02:48:36.372Z,90.31
2022-09-10T02:49:36.246Z,90.00
2022-09-10T02:50:36.237Z,90.31
2022-09-10T02:51:36.248Z,90.26
2022-09-10T02:52:36.215Z,90.31
2022-09-10T02:53:36.211Z,89.59
2022-09-10T02:54:36.197Z,90.31
2022-09-10T02:55:36.189Z,90.11
2022-09-10T02:56:36.207Z,90.41
2022-09-10T02:57:36.178Z,90.51
2022-09-10T02:58:36.166Z,90.61
2022-09-10T02:59:36.158Z,90.41
2022-09-10T03:00:36.152Z,90.31
2022-09-10T03:01:36.174Z,90.31
2022-09-10T03:02:36.134Z,90.92
2022-09-10T03:03:36.130Z,90.92
2022-09-10T03:04:36.123Z,91.63
2022-09-10T03:05:36.122Z,91.52
2022-09-10T03:06:36.133Z,91.32
2022-09-10T03:07:36.111Z,90.96
2022-09-10T03:08:36.097Z,91.83
2022-09-10T03:09:36.090Z,91.67
2022-09-10T03:10:36.077Z,91.67
2022-09-10T03:11:36.098Z,91.56
2022-09-10T03:12:36.058Z,91.77
2022-09-10T03:13:36.052Z,91.22
2022-09-10T03:14:36.048Z,91.32
2022-09-10T03:15:36.037Z,91.67
2022-09-10T03:16:36.108Z,91.47
2022-09-10T03:17:36.029Z,91.26
2022-09-10T03:18:36.073Z,91.47
2022-09-10T03:19:36.012Z,91.47
2022-09-10T03:20:36.000Z,91.47
2022-09-10T03:21:36.049Z,91.26
2022-09-10T03:22:36.046Z,91.67
2022-09-10T03:23:37.466Z,91.87
2022-09-10T03:24:36.987Z,91.47
2022-09-10T03:25:35.973Z,91.87
2022-09-10T03:26:35.981Z,91.77
2022-09-10T03:27:35.951Z,92.03
2022-09-10T03:28:35.951Z,91.77
2022-09-10T03:29:35.932Z,91.77
2022-09-10T03:30:35.938Z,91.77
2022-09-10T03:31:35.985Z,91.87
2022-09-10T03:32:35.913Z,91.87
2022-09-10T03:33:35.907Z,91.47
2022-09-10T03:34:35.902Z,92.18
2022-09-10T03:35:35.916Z,91.97
2022-09-10T03:36:35.888Z,92.07
2022-09-10T03:37:35.875Z,91.87
2022-09-10T03:38:35.878Z,91.77
2022-09-10T03:39:35.921Z,92.07
2022-09-10T03:40:35.878Z,92.07
2022-09-10T03:41:35.846Z,92.28
2022-09-10T03:42:35.844Z,92.18
2022-09-10T03:43:35.836Z,92.79
2022-09-10T03:44:35.825Z,92.83
2022-09-10T03:45:35.868Z,92.52
2022-09-10T03:46:35.814Z,92.42
2022-09-10T03:47:35.808Z,92.12
2022-09-10T03:48:35.835Z,91.82
2022-09-10T03:49:35.797Z,92.42
2022-09-10T03:50:35.801Z,92.93
2022-09-10T03:51:35.771Z,93.24
2022-09-10T03:52:35.768Z,93.03
2022-09-10T03:53:35.750Z,93.33
2022-09-10T03:54:35.748Z,93.33
2022-09-10T03:55:35.766Z,92.93
2022-09-10T03:56:35.726Z,93.03
2022-09-10T03:57:35.723Z,92.93
2022-09-10T03:58:35.849Z,93.13
2022-09-10T03:59:35.710Z,93.13
2022-09-10T04:00:35.732Z,93.44
2022-09-10T04:01:35.690Z,93.29
2022-09-10T04:02:35.690Z,92.68
2022-09-10T04:03:35.679Z,92.89
2022-09-10T04:04:35.673Z,92.89
2022-09-10T04:05:35.696Z,92.89
2022-09-10T04:06:35.664Z,93.40
2022-09-10T04:07:35.660Z,93.19
2022-09-10T04:08:35.683Z,93.29
2022-09-10T04:09:35.637Z,93.03
2022-09-10T04:10:35.632Z,92.89
2022-09-10T04:11:35.644Z,93.24
2022-09-10T04:12:35.617Z,93.09
2022-09-10T04:13:35.601Z,93.40
2022-09-10T04:14:35.594Z,93.09
2022-09-10T04:15:35.585Z,93.09
2022-09-10T04:16:35.648Z,93.19
2022-09-10T04:17:35.577Z,93.19
2022-09-10T04:18:35.648Z,93.19
2022-09-10T04:19:35.553Z,93.09
2022-09-10T04:20:35.548Z,93.29
2022-09-10T04:21:35.573Z,93.19
2022-09-10T04:22:35.536Z,93.40
2022-09-10T04:23:35.528Z,93.19
2022-09-10T04:24:35.516Z,93.29
2022-09-10T04:25:35.516Z,92.89
2022-09-10T04:26:35.528Z,92.58
2022-09-10T04:27:35.495Z,92.68
2022-09-10T04:28:35.486Z,93.19
2022-09-10T04:29:35.483Z,93.49
2022-09-10T04:30:35.475Z,93.29
2022-09-10T04:31:35.549Z,93.40
2022-09-10T04:32:35.455Z,93.19
2022-09-10T04:33:35.453Z,93.29
2022-09-10T04:34:35.449Z,93.40
2022-09-10T04:35:35.465Z,92.89
2022-09-10T04:36:35.428Z,92.99
2022-09-10T04:37:35.418Z,93.09
2022-09-10T04:38:35.469Z,93.09
2022-09-10T04:39:35.422Z,93.24
2022-09-10T04:40:35.416Z,93.19
2022-09-10T04:41:35.389Z,93.54
2022-09-10T04:42:35.383Z,93.95
2022-09-10T04:43:35.374Z,93.84
2022-09-10T04:44:35.362Z,93.84
2022-09-10T04:45:35.419Z,93.74
2022-09-10T04:46:35.344Z,93.74
2022-09-10T04:47:35.345Z,93.60
2022-09-10T04:48:35.393Z,93.64
2022-09-10T04:49:35.332Z,93.84
2022-09-10T04:50:35.345Z,93.84
2022-09-10T04:51:35.318Z,93.74
2022-09-10T04:52:35.303Z,94.15
2022-09-10T04:53:35.308Z,94.15
2022-09-10T04:54:35.288Z,93.95
2022-09-10T04:55:35.317Z,94.10
2022-09-10T04:56:35.274Z,94.21
2022-09-10T04:57:35.280Z,93.90
2022-09-10T04:58:38.673Z,93.74
2022-09-10T04:59:36.251Z,94.15
2022-09-10T05:00:35.245Z,94.25
2022-09-10T05:01:35.259Z,94.86
2022-09-10T05:02:35.224Z,94.35
2022-09-10T05:03:35.263Z,94.15
2022-09-10T05:04:35.209Z,94.35
2022-09-10T05:05:35.204Z,94.05
2022-09-10T05:06:35.223Z,94.86
2022-09-10T05:07:35.185Z,94.96
2022-09-10T05:08:35.240Z,94.86
2022-09-10T05:09:35.173Z,94.15
2022-09-10T05:10:35.169Z,94.25
2022-09-10T05:11:35.178Z,94.10
2022-09-10T05:12:35.149Z,94.00
2022-09-10T05:13:35.138Z,93.84
2022-09-10T05:14:35.128Z,93.80
2022-09-10T05:15:35.146Z,93.60
2022-09-10T05:16:35.161Z,93.60
2022-09-10T05:17:35.111Z,93.70
2022-09-10T05:18:35.154Z,93.80
2022-09-10T05:19:35.089Z,93.40
2022-09-10T05:20:35.109Z,93.70
2022-09-10T05:21:35.077Z,93.65
2022-09-10T05:22:40.078Z,93.19
2022-09-10T05:23:37.065Z,92.94
2022-09-10T05:24:35.052Z,92.54
2022-09-10T05:25:35.072Z,92.84
2022-09-10T05:26:35.046Z,92.84
2022-09-10T05:27:35.027Z,92.70
2022-09-10T05:28:35.108Z,92.64
2022-09-10T05:29:35.011Z,92.70
2022-09-10T05:30:35.029Z,92.49
2022-09-10T05:31:35.036Z,92.33
2022-09-10T05:32:34.993Z,92.29
2022-09-10T05:33:34.994Z,91.39
2022-09-10T05:34:34.973Z,90.28
2022-09-10T05:35:35.006Z,89.57
2022-09-10T05:36:34.962Z,90.08
2022-09-10T05:37:34.960Z,90.22
2022-09-10T05:38:39.754Z,90.28
2022-09-10T05:39:36.989Z,90.62
2022-09-10T05:40:34.955Z,90.73
2022-09-10T05:41:34.921Z,90.83
2022-09-10T05:42:34.909Z,91.34
2022-09-10T05:43:34.918Z,90.73
2022-09-10T05:44:34.900Z,91.13
2022-09-10T05:45:35.004Z,91.78
2022-09-10T05:46:34.920Z,90.83
2022-09-10T05:47:34.879Z,90.83
2022-09-10T05:48:37.654Z,90.93
2022-09-10T05:49:35.927Z,91.13
2022-09-10T05:50:34.907Z,91.34
2022-09-10T05:51:34.869Z,90.93
2022-09-10T05:52:34.848Z,90.53
2022-09-10T05:53:34.854Z,90.53
2022-09-10T05:54:34.827Z,90.32
2022-09-10T05:55:34.870Z,90.38
2022-09-10T05:56:34.831Z,89.98
2022-09-10T05:57:34.819Z,89.47
2022-09-10T05:58:34.819Z,89.77
2022-09-10T05:59:34.830Z,89.77
2022-09-10T06:00:34.841Z,89.77
2022-09-10T06:01:34.795Z,90.08
2022-09-10T06:02:34.869Z,89.77
2022-09-10T06:03:34.782Z,89.67
2022-09-10T06:04:34.810Z,89.67
2022-09-10T06:05:34.841Z,89.77
2022-09-10T06:06:34.783Z,89.77
2022-09-10T06:07:34.769Z,89.63
2022-09-10T06:08:34.746Z,89.83
2022-09-10T06:09:34.788Z,89.32
2022-09-10T06:10:34.937Z,89.23
2022-09-10T06:11:34.754Z,89.06
2022-09-10T06:12:34.731Z,89.23
2022-09-10T06:13:34.713Z,89.32
2022-09-10T06:14:35.742Z,89.17
2022-09-10T06:15:34.729Z,89.02
2022-09-10T06:16:34.754Z,89.02
2022-09-10T06:17:34.702Z,88.92
2022-09-10T06:18:34.748Z,89.23
2022-09-10T06:19:34.670Z,89.32
2022-09-10T06:20:34.713Z,89.53
2022-09-10T06:21:34.651Z,89.32
2022-09-10T06:22:34.654Z,89.02
2022-09-10T06:23:34.675Z,88.92
2022-09-10T06:24:34.666Z,89.02
2022-09-10T06:25:34.654Z,88.82
2022-09-10T06:26:34.672Z,88.88
2022-09-10T06:27:34.614Z,88.57
2022-09-10T06:28:34.704Z,88.57
2022-09-10T06:29:34.579Z,88.88
2022-09-10T06:30:34.671Z,88.68
2022-09-10T06:31:34.583Z,88.68
2022-09-10T06:32:34.616Z,88.68
2022-09-10T06:33:34.570Z,88.37
2022-09-10T06:34:34.588Z,88.37
2022-09-10T06:35:34.601Z,88.68
2022-09-10T06:36:34.549Z,88.57
2022-09-10T06:37:34.518Z,88.78
2022-09-10T06:38:35.325Z,88.57
2022-09-10T06:39:34.569Z,88.51
2022-09-10T06:40:34.558Z,88.62
2022-09-10T06:41:34.492Z,88.57
2022-09-10T06:42:34.505Z,88.57
2022-09-10T06:43:34.481Z,88.37
2022-09-10T06:44:34.551Z,88.37
2022-09-10T06:45:34.662Z,88.48
2022-09-10T06:47:19.605Z,88.37
2022-09-10T06:48:32.398Z,88.27
2022-09-10T06:48:39.064Z,88.02
2022-09-10T06:49:35.458Z,87.82
2022-09-10T06:50:34.485Z,88.23
2022-09-10T06:51:34.445Z,87.87
2022-09-10T06:52:34.616Z,88.27
2022-09-10T06:53:34.453Z,88.02
2022-09-10T06:54:34.504Z,88.23
2022-09-10T06:55:34.535Z,88.33
2022-09-10T06:56:34.543Z,88.53
2022-09-10T06:57:34.484Z,87.73
2022-09-10T06:58:34.387Z,87.82
2022-09-10T06:59:34.446Z,87.52
2022-09-10T07:00:34.493Z,87.42
2022-09-10T07:01:34.418Z,87.28
2022-09-10T07:02:34.419Z,87.08
2022-09-10T07:03:34.395Z,86.98
2022-09-10T07:04:34.358Z,87.18
2022-09-10T07:05:34.439Z,87.18
2022-09-10T07:06:34.391Z,87.08
2022-09-10T07:07:34.331Z,86.98
2022-09-10T07:08:34.316Z,86.87
2022-09-10T07:09:34.317Z,87.18
2022-09-10T07:10:34.345Z,87.18
2022-09-10T07:11:37.971Z,87.18
2022-09-10T07:12:35.260Z,87.08
2022-09-10T07:13:34.291Z,87.08
2022-09-10T07:14:34.283Z,87.08
2022-09-10T07:15:34.343Z,87.08
2022-09-10T07:16:34.286Z,86.98
2022-09-10T07:17:34.252Z,86.22
2022-09-10T07:18:34.231Z,86.16
2022-09-10T07:19:34.238Z,86.63
2022-09-10T07:20:34.267Z,86.47
2022-09-10T07:21:34.276Z,86.37
2022-09-10T07:22:34.218Z,86.13
2022-09-10T07:23:34.308Z,86.43
2022-09-10T07:24:34.215Z,86.77
2022-09-10T07:25:34.245Z,86.93
2022-09-10T07:26:34.202Z,86.13
2022-09-10T07:27:34.216Z,86.33
2022-09-10T07:28:34.207Z,86.43
2022-09-10T07:29:34.198Z,86.13
2022-09-10T07:30:34.174Z,86.22
2022-09-10T07:31:34.208Z,86.19
2022-09-10T07:32:34.159Z,85.78
2022-09-10T07:33:34.154Z,85.62
2022-09-10T07:34:34.126Z,85.78
2022-09-10T07:35:34.155Z,86.29
2022-09-10T07:36:34.175Z,85.28
2022-09-10T07:37:34.110Z,85.03
2022-09-10T07:38:34.124Z,85.17
2022-09-10T07:39:34.158Z,85.03
2022-09-10T07:40:34.102Z,85.44
2022-09-10T07:41:34.109Z,84.03
2022-09-10T07:42:34.058Z,84.19
2022-09-10T07:43:34.062Z,83.92
2022-09-10T07:44:34.033Z,83.62
2022-09-10T07:45:34.099Z,83.68
2022-09-10T07:46:34.005Z,84.19
2022-09-10T07:47:34.007Z,83.28
2022-09-10T07:48:34.017Z,83.52
2022-09-10T07:49:34.013Z,83.38
2022-09-10T07:50:34.003Z,83.48
2022-09-10T07:51:33.980Z,83.42
2022-09-10T07:52:33.987Z,83.48
2022-09-10T07:53:33.962Z,83.18
2022-09-10T07:54:33.958Z,83.28
2022-09-10T07:55:33.982Z,83.38
2022-09-10T07:56:33.939Z,83.18
2022-09-10T07:57:33.919Z,83.28
2022-09-10T07:58:33.914Z,83.62
2022-09-10T07:59:33.920Z,83.42
2022-09-10T08:00:33.915Z,84.12
2022-09-10T08:01:33.985Z,83.82
2022-09-10T08:02:33.946Z,83.82
2022-09-10T08:03:33.915Z,83.38
2022-09-10T08:04:36.980Z,83.42
2022-09-10T08:05:34.895Z,83.32
2022-09-10T08:06:33.857Z,83.01
2022-09-10T08:07:33.848Z,82.91
2022-09-10T08:08:33.845Z,82.41
2022-09-10T08:09:33.819Z,83.42
2022-09-10T08:10:33.829Z,83.01
2022-09-10T08:11:33.872Z,82.87
2022-09-10T08:12:33.837Z,83.18
2022-09-10T08:13:33.823Z,83.12
2022-09-10T08:14:33.821Z,83.12
2022-09-10T08:15:33.880Z,82.10
2022-09-10T08:16:33.822Z,82.78
2022-09-10T08:17:33.802Z,83.07
2022-09-10T08:18:33.827Z,82.91
2022-09-10T08:19:33.771Z,82.67
2022-09-10T08:20:33.807Z,83.12
2022-09-10T08:21:33.756Z,82.87
2022-09-10T08:22:33.737Z,82.17
2022-09-10T08:23:33.747Z,83.18
2022-09-10T08:24:33.725Z,82.87
2022-09-10T08:25:33.746Z,81.87
2022-09-10T08:26:33.705Z,82.47
2022-09-10T08:27:33.699Z,82.27
2022-09-10T08:28:33.692Z,81.36
2022-09-10T08:29:33.678Z,81.96
2022-09-10T08:30:33.692Z,82.57
2022-09-10T08:31:33.716Z,81.96
2022-09-10T08:32:33.670Z,81.73
2022-09-10T08:33:33.731Z,82.23
2022-09-10T08:34:33.682Z,81.82
2022-09-10T08:35:33.661Z,81.73
2022-09-10T08:36:33.662Z,81.93
2022-09-10T08:37:33.635Z,81.08
2022-09-10T08:38:33.642Z,80.78
2022-09-10T08:39:33.657Z,80.62
2022-09-10T08:40:33.615Z,80.41
2022-09-10T08:41:33.664Z,80.88
2022-09-10T08:42:33.602Z,80.47
2022-09-10T08:43:33.623Z,79.67
2022-09-10T08:44:33.596Z,79.97
2022-09-10T08:45:33.629Z,80.11
2022-09-10T08:46:33.639Z,80.62
2022-09-10T08:47:33.585Z,80.41
2022-09-10T08:48:33.677Z,80.18
2022-09-10T08:49:33.551Z,80.33
2022-09-10T08:50:33.624Z,79.97
2022-09-10T08:51:33.589Z,79.57
2022-09-10T08:52:33.554Z,79.36
2022-09-10T08:53:33.527Z,79.87
2022-09-10T08:54:33.531Z,80.07
2022-09-10T08:55:33.548Z,79.97
2022-09-10T08:56:33.533Z,80.68
2022-09-10T08:57:33.486Z,80.41
2022-09-10T08:58:33.489Z,80.11
2022-09-10T08:59:33.486Z,80.41
2022-09-10T09:00:33.473Z,80.07
2022-09-10T09:01:33.542Z,80.38
2022-09-10T09:02:48.202Z,80.21
2022-09-10T09:03:35.442Z,80.41
2022-09-10T09:04:33.478Z,80.41
2022-09-10T09:05:33.457Z,80.38
2022-09-10T09:06:33.510Z,80.38
2022-09-10T09:07:33.428Z,80.38
2022-09-10T09:08:33.431Z,80.21
2022-09-10T09:09:33.401Z,80.47
2022-09-10T09:10:33.450Z,80.07
2022-09-10T09:11:33.449Z,79.77
2022-09-10T09:12:33.379Z,79.87
2022-09-10T09:13:33.381Z,80.21
2022-09-10T09:14:33.403Z,80.38
2022-09-10T09:15:33.430Z,79.77
2022-09-10T09:16:33.389Z,79.73
2022-09-10T09:17:33.322Z,79.63
2022-09-10T09:18:34.344Z,79.33
2022-09-10T09:19:33.345Z,79.33
2022-09-10T09:20:33.361Z,79.33
2022-09-10T09:21:33.328Z,79.13
2022-09-10T09:22:36.935Z,78.92
2022-09-10T09:23:34.310Z,78.83
2022-09-10T09:24:33.273Z,78.63
2022-09-10T09:25:33.280Z,78.89
2022-09-10T09:26:33.303Z,78.49
2022-09-10T09:27:33.282Z,78.69
2022-09-10T09:28:33.274Z,79.29
2022-09-10T09:29:33.225Z,79.09
2022-09-10T09:30:33.373Z,79.25
2022-09-10T09:31:33.305Z,80.00
2022-09-10T09:32:33.316Z,79.80
2022-09-10T09:33:33.261Z,78.89
2022-09-10T09:34:33.253Z,79.43
2022-09-10T09:35:33.254Z,79.33
2022-09-10T09:36:33.268Z,79.33
2022-09-10T09:37:33.229Z,79.29
2022-09-10T09:38:33.258Z,78.28
2022-09-10T09:39:33.209Z,78.55
2022-09-10T09:40:33.237Z,77.44
2022-09-10T09:41:33.177Z,77.14
2022-09-10T09:42:33.197Z,77.11
2022-09-10T09:43:33.181Z,76.80
2022-09-10T09:44:33.145Z,76.40
2022-09-10T09:45:33.162Z,76.76
2022-09-10T09:46:33.106Z,75.92
2022-09-10T09:47:33.171Z,75.52
2022-09-10T09:48:33.368Z,75.52
2022-09-10T09:49:33.132Z,75.52
2022-09-10T09:50:33.087Z,74.68
2022-09-10T09:51:33.116Z,74.68
2022-09-10T09:52:33.101Z,74.58
2022-09-10T09:53:33.081Z,74.01
2022-09-10T09:55:10.135Z,74.72
2022-09-10T09:55:35.201Z,75.22
2022-09-10T09:56:33.040Z,75.32
2022-09-10T09:57:33.045Z,75.22
2022-09-10T09:58:33.080Z,75.72
2022-09-10T09:59:33.024Z,75.35
2022-09-10T10:00:33.008Z,75.32
2022-09-10T10:01:33.078Z,75.12
2022-09-10T10:02:33.023Z,75.12
2022-09-10T10:03:33.046Z,75.22
2022-09-10T10:04:33.064Z,75.22
2022-09-10T10:05:33.004Z,75.92
2022-09-10T10:06:32.972Z,75.92
2022-09-10T10:07:32.946Z,75.09
2022-09-10T10:08:32.963Z,74.65
2022-09-10T10:09:32.948Z,74.98
2022-09-10T10:10:33.014Z,73.17
2022-09-10T10:11:32.927Z,72.77
2022-09-10T10:12:32.933Z,72.43
2022-09-10T10:13:32.948Z,72.56
2022-09-10T10:14:32.941Z,73.07
2022-09-10T10:15:33.026Z,73.17
2022-09-10T10:16:32.883Z,72.17
2022-09-10T10:17:33.905Z,72.06
2022-09-10T10:18:32.904Z,72.06
2022-09-10T10:19:32.874Z,72.00
2022-09-10T10:20:32.858Z,71.66
2022-09-10T10:21:32.859Z,71.97
2022-09-10T10:22:32.826Z,71.66
2022-09-10T10:23:32.870Z,72.00
2022-09-10T10:24:32.854Z,72.53
2022-09-10T10:25:32.817Z,73.34
2022-09-10T10:26:32.797Z,73.54
2022-09-10T10:27:33.049Z,72.27
2022-09-10T10:28:33.835Z,71.93
2022-09-10T10:29:32.783Z,70.43
2022-09-10T10:30:32.779Z,70.69
2022-09-10T10:31:32.765Z,70.89
2022-09-10T10:32:32.751Z,69.76
2022-09-10T10:33:32.807Z,68.92
2022-09-10T10:34:32.746Z,69.09
2022-09-10T10:35:32.801Z,70.16
2022-09-10T10:36:32.736Z,70.43
2022-09-10T10:37:32.737Z,70.26
2022-09-10T10:38:32.768Z,70.16
2022-09-10T10:39:32.819Z,70.23
2022-09-10T10:40:32.710Z,68.15
2022-09-10T10:41:32.704Z,69.06
2022-09-10T10:42:32.699Z,69.26
2022-09-10T10:43:32.690Z,68.89
2022-09-10T10:44:32.704Z,68.26
2022-09-10T10:45:32.659Z,68.96
2022-09-10T10:46:32.708Z,69.16
2022-09-10T10:47:32.653Z,69.69
2022-09-10T10:48:32.653Z,69.69
2022-09-10T10:49:32.664Z,69.39
2022-09-10T10:50:32.908Z,69.62
2022-09-10T10:51:32.616Z,70.12
2022-09-10T10:52:32.615Z,69.85
2022-09-10T10:53:32.627Z,70.70
2022-09-10T10:54:32.596Z,71.70
2022-09-10T10:55:32.633Z,71.66
2022-09-10T10:56:32.665Z,71.56
2022-09-10T10:57:32.574Z,70.56
2022-09-10T10:58:32.622Z,70.76
2022-09-10T10:59:32.575Z,69.66
2022-09-10T11:00:32.634Z,70.96
2022-09-10T11:01:32.628Z,70.96
2022-09-10T11:02:32.623Z,70.76
2022-09-10T11:03:32.622Z,69.96
2022-09-10T11:04:32.581Z,70.36
2022-09-10T11:05:32.627Z,70.26
2022-09-10T11:06:32.526Z,70.46
2022-09-10T11:07:32.506Z,70.76
2022-09-10T11:08:32.577Z,72.17
2022-09-10T11:09:32.491Z,70.86
2022-09-10T11:10:32.498Z,70.32
2022-09-10T11:11:32.472Z,68.42
2022-09-10T11:12:32.492Z,68.42
2022-09-10T11:13:32.485Z,68.05
2022-09-10T11:14:32.522Z,69.99
2022-09-10T11:15:32.471Z,69.79
2022-09-10T11:16:32.426Z,68.99
2022-09-10T11:17:32.436Z,68.62
2022-09-10T11:18:32.417Z,69.79
2022-09-10T11:19:32.463Z,69.99
2022-09-10T11:20:32.426Z,69.82
2022-09-10T11:21:32.398Z,68.32
2022-09-10T11:22:32.400Z,68.82
2022-09-10T11:23:33.392Z,68.41
2022-09-10T11:24:32.403Z,69.32
2022-09-10T11:25:32.370Z,69.59
2022-09-10T11:26:32.398Z,69.52
2022-09-10T11:27:32.391Z,69.82
2022-09-10T11:28:32.353Z,69.49
2022-09-10T11:29:32.366Z,69.35
2022-09-10T11:30:32.338Z,69.46
2022-09-10T11:31:32.364Z,69.53
2022-09-10T11:32:32.336Z,68.82
2022-09-10T11:33:32.334Z,69.12
2022-09-10T11:34:32.330Z,69.39
2022-09-10T11:35:32.303Z,69.79
2022-09-10T11:36:32.295Z,69.96
2022-09-10T11:37:32.272Z,69.12
2022-09-10T11:38:32.279Z,68.42
2022-09-10T11:39:32.332Z,66.82
2022-09-10T11:40:32.273Z,66.15
2022-09-10T11:41:32.252Z,66.85
2022-09-10T11:42:32.246Z,66.55
2022-09-10T11:43:32.257Z,67.55
2022-09-10T11:44:36.204Z,68.92
2022-09-10T11:45:33.281Z,68.92
2022-09-10T11:46:32.317Z,69.96
2022-09-10T11:47:32.224Z,70.16
2022-09-10T11:48:32.281Z,70.12
2022-09-10T11:49:32.251Z,70.12
2022-09-10T11:50:34.670Z,69.29
2022-09-10T11:51:33.167Z,69.26
2022-09-10T11:52:32.168Z,68.66
2022-09-10T11:53:32.164Z,68.46
2022-09-10T11:54:32.185Z,68.46
2022-09-10T11:55:32.175Z,69.09
2022-09-10T11:56:32.175Z,70.09
2022-09-10T11:57:32.144Z,70.59
2022-09-10T11:58:32.118Z,69.59
2022-09-10T11:59:33.143Z,69.96
2022-09-10T12:00:32.254Z,70.46
2022-09-10T12:01:32.113Z,70.06
2022-09-10T12:02:32.176Z,70.09
2022-09-10T12:03:32.102Z,70.59
2022-09-10T12:04:32.101Z,71.26
2022-09-10T12:05:32.068Z,72.00
2022-09-10T12:06:32.055Z,72.94
2022-09-10T12:07:32.067Z,73.97
2022-09-10T12:08:32.049Z,74.18
2022-09-10T12:09:32.082Z,73.77
2022-09-10T12:10:32.035Z,73.84
2022-09-10T12:11:32.030Z,74.48
2022-09-10T12:12:32.064Z,74.98
2022-09-10T12:13:32.073Z,74.77
2022-09-10T12:14:32.072Z,75.18
2022-09-10T12:15:32.039Z,75.51
2022-09-10T12:16:32.069Z,75.21
2022-09-10T12:17:32.143Z,75.92
2022-09-10T12:18:31.971Z,75.85
2022-09-10T12:19:31.994Z,75.95
2022-09-10T12:20:31.965Z,76.02
2022-09-10T12:21:31.947Z,74.98
2022-09-10T12:22:31.947Z,75.68
2022-09-10T12:23:31.955Z,75.48
2022-09-10T12:24:31.943Z,75.04
2022-09-10T12:25:34.492Z,74.90
2022-09-10T12:26:32.906Z,73.94
2022-09-10T12:27:31.907Z,73.84
2022-09-10T12:28:31.922Z,73.50
2022-09-10T12:29:31.915Z,73.80
2022-09-10T12:30:31.875Z,73.80
2022-09-10T12:31:31.888Z,72.60
2022-09-10T12:32:31.914Z,73.00
2022-09-10T12:33:31.899Z,72.56
2022-09-10T12:34:31.914Z,72.36
2022-09-10T12:35:31.821Z,72.36
2022-09-10T12:36:31.821Z,71.50
2022-09-10T12:37:31.812Z,72.30
2022-09-10T12:38:31.802Z,73.13
2022-09-10T12:39:31.815Z,73.57
2022-09-10T12:40:31.793Z,73.77
2022-09-10T12:41:31.787Z,74.41
2022-09-10T12:42:31.782Z,75.15
2022-09-10T12:43:31.762Z,75.65
2022-09-10T12:44:31.789Z,75.65
2022-09-10T12:45:31.754Z,76.29
2022-09-10T12:46:31.760Z,77.00
2022-09-10T12:47:31.738Z,77.94
2022-09-10T12:48:31.737Z,78.17
2022-09-10T12:49:31.775Z,78.38
2022-09-10T12:50:32.726Z,78.27
2022-09-10T12:51:31.755Z,77.57
2022-09-10T12:52:31.713Z,77.94